sensor_id;sensor_type;location;lat;lon;timestamp;P1;durP1;ratioP1;P2;durP2;ratioP2
19482;SDS011;9882;51.166;6.992;2023-12-20T00:01:01;8.45;;;3.67;;
19482;SDS011;9882;51.166;6.992;2023-12-20T00:03:30;10.00;;;4.00;;
19482;SDS011;9882;51.166;6.992;2023-12-20T00:06:01;13.25;;;4.45;;
19482;SDS011;9882;51.166;6.992;2023-12-20T00:08:30;10.88;;;3.63;;
19482;SDS011;9882;51.166;6.992;2023-12-20T00:11:00;7.28;;;2.97;;
19482;SDS011;9882;51.166;6.992;2023-12-20T00:13:29;5.68;;;2.70;;
19482;SDS011;9882;51.166;6.992;2023-12-20T00:15:59;6.88;;;2.78;;
19482;SDS011;9882;51.166;6.992;2023-12-20T00:18:27;3.55;;;2.70;;
19482;SDS011;9882;51.166;6.992;2023-12-20T00:20:56;5.72;;;2.63;;
19482;SDS011;9882;51.166;6.992;2023-12-20T00:23:26;4.20;;;2.47;;
19482;SDS011;9882;51.166;6.992;2023-12-20T00:25:55;4.25;;;2.10;;
19482;SDS011;9882;51.166;6.992;2023-12-20T00:28:26;3.17;;;2.30;;
19482;SDS011;9882;51.166;6.992;2023-12-20T00:30:55;6.25;;;2.45;;
19482;SDS011;9882;51.166;6.992;2023-12-20T00:33:24;5.20;;;2.65;;
19482;SDS011;9882;51.166;6.992;2023-12-20T00:35:53;5.05;;;2.40;;
19482;SDS011;9882;51.166;6.992;2023-12-20T00:38:22;8.02;;;2.70;;
19482;SDS011;9882;51.166;6.992;2023-12-20T00:40:51;4.45;;;2.38;;
19482;SDS011;9882;51.166;6.992;2023-12-20T00:43:20;3.17;;;2.22;;
19482;SDS011;9882;51.166;6.992;2023-12-20T00:45:51;3.35;;;2.17;;
19482;SDS011;9882;51.166;6.992;2023-12-20T00:48:20;5.60;;;2.78;;
19482;SDS011;9882;51.166;6.992;2023-12-20T00:50:49;6.72;;;2.50;;
19482;SDS011;9882;51.166;6.992;2023-12-20T00:53:18;5.53;;;2.65;;
19482;SDS011;9882;51.166;6.992;2023-12-20T00:55:47;3.97;;;2.47;;
19482;SDS011;9882;51.166;6.992;2023-12-20T00:58:17;4.75;;;2.80;;
19482;SDS011;9882;51.166;6.992;2023-12-20T01:00:46;3.70;;;2.72;;
19482;SDS011;9882;51.166;6.992;2023-12-20T01:03:17;5.03;;;2.83;;
19482;SDS011;9882;51.166;6.992;2023-12-20T01:05:46;8.27;;;2.75;;
19482;SDS011;9882;51.166;6.992;2023-12-20T01:08:15;2.38;;;2.00;;
19482;SDS011;9882;51.166;6.992;2023-12-20T01:10:44;5.53;;;3.30;;
19482;SDS011;9882;51.166;6.992;2023-12-20T01:13:13;9.15;;;2.95;;
19482;SDS011;9882;51.166;6.992;2023-12-20T01:15:43;4.88;;;2.97;;
19482;SDS011;9882;51.166;6.992;2023-12-20T01:18:14;2.25;;;2.10;;
19482;SDS011;9882;51.166;6.992;2023-12-20T01:20:44;5.88;;;2.58;;
19482;SDS011;9882;51.166;6.992;2023-12-20T01:23:13;4.88;;;2.75;;
19482;SDS011;9882;51.166;6.992;2023-12-20T01:25:42;7.68;;;3.40;;
19482;SDS011;9882;51.166;6.992;2023-12-20T01:28:11;8.52;;;3.35;;
19482;SDS011;9882;51.166;6.992;2023-12-20T01:30:40;9.45;;;3.35;;
19482;SDS011;9882;51.166;6.992;2023-12-20T01:33:09;12.63;;;3.85;;
19482;SDS011;9882;51.166;6.992;2023-12-20T01:35:38;5.80;;;3.45;;
19482;SDS011;9882;51.166;6.992;2023-12-20T01:38:09;8.95;;;3.67;;
19482;SDS011;9882;51.166;6.992;2023-12-20T01:40:40;10.18;;;4.13;;
19482;SDS011;9882;51.166;6.992;2023-12-20T01:43:11;9.38;;;3.97;;
19482;SDS011;9882;51.166;6.992;2023-12-20T01:45:41;14.95;;;4.80;;
19482;SDS011;9882;51.166;6.992;2023-12-20T01:48:10;12.73;;;4.57;;
19482;SDS011;9882;51.166;6.992;2023-12-20T01:50:42;18.27;;;6.05;;
19482;SDS011;9882;51.166;6.992;2023-12-20T01:53:15;11.07;;;5.15;;
19482;SDS011;9882;51.166;6.992;2023-12-20T01:55:45;11.40;;;5.15;;
19482;SDS011;9882;51.166;6.992;2023-12-20T01:58:16;9.63;;;4.28;;
19482;SDS011;9882;51.166;6.992;2023-12-20T02:00:45;9.70;;;4.32;;
19482;SDS011;9882;51.166;6.992;2023-12-20T02:03:16;14.43;;;4.80;;
19482;SDS011;9882;51.166;6.992;2023-12-20T02:05:45;10.63;;;4.10;;
19482;SDS011;9882;51.166;6.992;2023-12-20T02:08:17;16.20;;;5.65;;
19482;SDS011;9882;51.166;6.992;2023-12-20T02:10:46;14.05;;;4.53;;
19482;SDS011;9882;51.166;6.992;2023-12-20T02:13:16;23.33;;;5.15;;
19482;SDS011;9882;51.166;6.992;2023-12-20T02:15:45;13.20;;;4.70;;
19482;SDS011;9882;51.166;6.992;2023-12-20T02:18:14;19.40;;;5.97;;
19482;SDS011;9882;51.166;6.992;2023-12-20T02:20:43;10.73;;;5.03;;
19482;SDS011;9882;51.166;6.992;2023-12-20T02:23:14;9.65;;;4.55;;
19482;SDS011;9882;51.166;6.992;2023-12-20T02:25:43;17.85;;;3.97;;
19482;SDS011;9882;51.166;6.992;2023-12-20T02:28:12;7.53;;;3.70;;
19482;SDS011;9882;51.166;6.992;2023-12-20T02:30:42;15.10;;;4.88;;
19482;SDS011;9882;51.166;6.992;2023-12-20T02:33:10;11.00;;;4.80;;
19482;SDS011;9882;51.166;6.992;2023-12-20T02:35:42;15.75;;;4.63;;
19482;SDS011;9882;51.166;6.992;2023-12-20T02:38:11;15.25;;;5.68;;
19482;SDS011;9882;51.166;6.992;2023-12-20T02:40:42;8.70;;;3.25;;
19482;SDS011;9882;51.166;6.992;2023-12-20T02:43:13;9.65;;;4.07;;
19482;SDS011;9882;51.166;6.992;2023-12-20T02:45:42;8.25;;;4.18;;
19482;SDS011;9882;51.166;6.992;2023-12-20T02:48:11;12.30;;;4.40;;
19482;SDS011;9882;51.166;6.992;2023-12-20T02:50:40;11.38;;;4.25;;
19482;SDS011;9882;51.166;6.992;2023-12-20T02:53:10;9.15;;;4.03;;
19482;SDS011;9882;51.166;6.992;2023-12-20T02:55:39;9.85;;;4.43;;
19482;SDS011;9882;51.166;6.992;2023-12-20T02:58:09;10.13;;;3.88;;
19482;SDS011;9882;51.166;6.992;2023-12-20T03:00:39;10.20;;;4.18;;
19482;SDS011;9882;51.166;6.992;2023-12-20T03:03:08;8.20;;;3.80;;
19482;SDS011;9882;51.166;6.992;2023-12-20T03:05:38;18.17;;;3.85;;
19482;SDS011;9882;51.166;6.992;2023-12-20T03:08:07;16.90;;;5.07;;
19482;SDS011;9882;51.166;6.992;2023-12-20T03:10:35;11.80;;;4.15;;
19482;SDS011;9882;51.166;6.992;2023-12-20T03:13:05;8.85;;;3.17;;
19482;SDS011;9882;51.166;6.992;2023-12-20T03:15:35;8.00;;;3.90;;
19482;SDS011;9882;51.166;6.992;2023-12-20T03:18:04;7.88;;;3.58;;
19482;SDS011;9882;51.166;6.992;2023-12-20T03:20:33;9.30;;;3.17;;
19482;SDS011;9882;51.166;6.992;2023-12-20T03:23:02;7.68;;;3.10;;
19482;SDS011;9882;51.166;6.992;2023-12-20T03:25:32;7.20;;;3.40;;
19482;SDS011;9882;51.166;6.992;2023-12-20T03:28:01;7.68;;;2.90;;
19482;SDS011;9882;51.166;6.992;2023-12-20T03:30:30;5.95;;;2.95;;
19482;SDS011;9882;51.166;6.992;2023-12-20T03:33:00;3.60;;;2.47;;
19482;SDS011;9882;51.166;6.992;2023-12-20T03:35:30;8.73;;;2.88;;
19482;SDS011;9882;51.166;6.992;2023-12-20T03:37:59;13.23;;;4.30;;
19482;SDS011;9882;51.166;6.992;2023-12-20T03:40:28;6.53;;;2.83;;
19482;SDS011;9882;51.166;6.992;2023-12-20T03:42:58;10.88;;;3.08;;
19482;SDS011;9882;51.166;6.992;2023-12-20T03:45:27;4.28;;;2.70;;
19482;SDS011;9882;51.166;6.992;2023-12-20T03:47:56;9.98;;;3.00;;
19482;SDS011;9882;51.166;6.992;2023-12-20T03:50:26;5.63;;;2.75;;
19482;SDS011;9882;51.166;6.992;2023-12-20T03:52:55;6.38;;;2.90;;
19482;SDS011;9882;51.166;6.992;2023-12-20T03:55:24;11.63;;;3.13;;
19482;SDS011;9882;51.166;6.992;2023-12-20T03:57:53;5.05;;;2.95;;
19482;SDS011;9882;51.166;6.992;2023-12-20T04:00:22;8.13;;;3.25;;
19482;SDS011;9882;51.166;6.992;2023-12-20T04:02:51;4.90;;;2.53;;
19482;SDS011;9882;51.166;6.992;2023-12-20T04:05:20;9.07;;;3.25;;
19482;SDS011;9882;51.166;6.992;2023-12-20T04:07:51;5.28;;;2.67;;
19482;SDS011;9882;51.166;6.992;2023-12-20T04:10:19;4.47;;;2.45;;
19482;SDS011;9882;51.166;6.992;2023-12-20T04:12:48;6.50;;;2.35;;
19482;SDS011;9882;51.166;6.992;2023-12-20T04:15:18;6.18;;;2.90;;
19482;SDS011;9882;51.166;6.992;2023-12-20T04:17:47;7.30;;;2.88;;
19482;SDS011;9882;51.166;6.992;2023-12-20T04:20:16;12.10;;;3.42;;
19482;SDS011;9882;51.166;6.992;2023-12-20T04:22:45;6.25;;;2.60;;
19482;SDS011;9882;51.166;6.992;2023-12-20T04:25:16;7.22;;;2.90;;
19482;SDS011;9882;51.166;6.992;2023-12-20T04:27:45;13.98;;;3.15;;
19482;SDS011;9882;51.166;6.992;2023-12-20T04:30:14;3.15;;;2.08;;
19482;SDS011;9882;51.166;6.992;2023-12-20T04:32:43;2.33;;;2.10;;
19482;SDS011;9882;51.166;6.992;2023-12-20T04:35:12;7.63;;;2.75;;
19482;SDS011;9882;51.166;6.992;2023-12-20T04:37:41;7.68;;;3.10;;
19482;SDS011;9882;51.166;6.992;2023-12-20T04:40:10;4.03;;;2.35;;
19482;SDS011;9882;51.166;6.992;2023-12-20T04:42:42;10.98;;;2.58;;
19482;SDS011;9882;51.166;6.992;2023-12-20T04:45:11;6.28;;;2.95;;
19482;SDS011;9882;51.166;6.992;2023-12-20T04:47:43;3.60;;;2.58;;
19482;SDS011;9882;51.166;6.992;2023-12-20T04:50:13;5.38;;;2.75;;
19482;SDS011;9882;51.166;6.992;2023-12-20T04:52:43;8.45;;;3.28;;
19482;SDS011;9882;51.166;6.992;2023-12-20T04:55:11;7.70;;;2.55;;
19482;SDS011;9882;51.166;6.992;2023-12-20T04:57:42;8.65;;;3.38;;
19482;SDS011;9882;51.166;6.992;2023-12-20T05:00:11;5.30;;;2.72;;
19482;SDS011;9882;51.166;6.992;2023-12-20T05:02:42;13.13;;;2.97;;
19482;SDS011;9882;51.166;6.992;2023-12-20T05:05:11;6.80;;;3.20;;
19482;SDS011;9882;51.166;6.992;2023-12-20T05:07:42;6.22;;;3.08;;
19482;SDS011;9882;51.166;6.992;2023-12-20T05:10:11;4.72;;;2.55;;
19482;SDS011;9882;51.166;6.992;2023-12-20T05:12:42;8.82;;;3.70;;
19482;SDS011;9882;51.166;6.992;2023-12-20T05:15:11;6.32;;;2.88;;
19482;SDS011;9882;51.166;6.992;2023-12-20T05:17:40;9.95;;;3.13;;
19482;SDS011;9882;51.166;6.992;2023-12-20T05:20:09;12.40;;;3.65;;
19482;SDS011;9882;51.166;6.992;2023-12-20T05:22:38;10.75;;;3.45;;
19482;SDS011;9882;51.166;6.992;2023-12-20T05:25:07;5.95;;;2.83;;
19482;SDS011;9882;51.166;6.992;2023-12-20T05:27:36;6.30;;;3.30;;
19482;SDS011;9882;51.166;6.992;2023-12-20T05:30:08;6.93;;;3.05;;
19482;SDS011;9882;51.166;6.992;2023-12-20T05:32:38;7.85;;;3.10;;
19482;SDS011;9882;51.166;6.992;2023-12-20T05:35:07;7.32;;;2.60;;
19482;SDS011;9882;51.166;6.992;2023-12-20T05:37:36;5.30;;;2.88;;
19482;SDS011;9882;51.166;6.992;2023-12-20T05:40:06;9.38;;;3.38;;
19482;SDS011;9882;51.166;6.992;2023-12-20T05:42:37;6.53;;;2.33;;
19482;SDS011;9882;51.166;6.992;2023-12-20T05:45:08;5.53;;;2.53;;
19482;SDS011;9882;51.166;6.992;2023-12-20T05:47:37;12.27;;;2.92;;
19482;SDS011;9882;51.166;6.992;2023-12-20T05:50:06;3.05;;;2.40;;
19482;SDS011;9882;51.166;6.992;2023-12-20T05:52:36;9.00;;;3.00;;
19482;SDS011;9882;51.166;6.992;2023-12-20T05:55:05;5.65;;;2.63;;
19482;SDS011;9882;51.166;6.992;2023-12-20T05:57:34;10.05;;;3.42;;
19482;SDS011;9882;51.166;6.992;2023-12-20T06:00:04;5.55;;;3.13;;
19482;SDS011;9882;51.166;6.992;2023-12-20T06:02:42;4.00;;;2.55;;
19482;SDS011;9882;51.166;6.992;2023-12-20T06:05:12;9.57;;;3.55;;
19482;SDS011;9882;51.166;6.992;2023-12-20T06:07:41;2.42;;;2.15;;
19482;SDS011;9882;51.166;6.992;2023-12-20T06:10:10;12.35;;;3.50;;
19482;SDS011;9882;51.166;6.992;2023-12-20T06:12:39;5.60;;;2.90;;
19482;SDS011;9882;51.166;6.992;2023-12-20T06:15:08;5.55;;;2.83;;
19482;SDS011;9882;51.166;6.992;2023-12-20T06:17:37;6.03;;;2.75;;
19482;SDS011;9882;51.166;6.992;2023-12-20T06:20:10;10.63;;;3.58;;
19482;SDS011;9882;51.166;6.992;2023-12-20T06:22:40;6.07;;;2.83;;
19482;SDS011;9882;51.166;6.992;2023-12-20T06:25:09;7.72;;;2.70;;
19482;SDS011;9882;51.166;6.992;2023-12-20T06:27:38;11.65;;;2.78;;
19482;SDS011;9882;51.166;6.992;2023-12-20T06:30:08;5.88;;;3.45;;
19482;SDS011;9882;51.166;6.992;2023-12-20T06:32:37;9.60;;;2.60;;
19482;SDS011;9882;51.166;6.992;2023-12-20T06:35:06;6.85;;;3.22;;
19482;SDS011;9882;51.166;6.992;2023-12-20T06:37:38;9.13;;;3.58;;
19482;SDS011;9882;51.166;6.992;2023-12-20T06:40:09;9.27;;;3.22;;
19482;SDS011;9882;51.166;6.992;2023-12-20T06:42:42;8.60;;;3.60;;
19482;SDS011;9882;51.166;6.992;2023-12-20T06:45:12;8.50;;;3.60;;
19482;SDS011;9882;51.166;6.992;2023-12-20T06:47:43;4.32;;;2.58;;
19482;SDS011;9882;51.166;6.992;2023-12-20T06:50:14;9.95;;;2.97;;
19482;SDS011;9882;51.166;6.992;2023-12-20T06:52:43;11.32;;;3.53;;
19482;SDS011;9882;51.166;6.992;2023-12-20T06:55:12;8.77;;;3.28;;
19482;SDS011;9882;51.166;6.992;2023-12-20T06:57:41;11.27;;;2.42;;
19482;SDS011;9882;51.166;6.992;2023-12-20T07:00:11;14.40;;;3.60;;
19482;SDS011;9882;51.166;6.992;2023-12-20T07:02:40;6.57;;;2.95;;
19482;SDS011;9882;51.166;6.992;2023-12-20T07:05:09;5.50;;;2.85;;
19482;SDS011;9882;51.166;6.992;2023-12-20T07:07:40;6.80;;;2.95;;
19482;SDS011;9882;51.166;6.992;2023-12-20T07:10:09;13.93;;;3.53;;
19482;SDS011;9882;51.166;6.992;2023-12-20T07:12:38;6.95;;;3.63;;
19482;SDS011;9882;51.166;6.992;2023-12-20T07:15:08;12.35;;;3.65;;
19482;SDS011;9882;51.166;6.992;2023-12-20T07:17:37;18.08;;;3.90;;
19482;SDS011;9882;51.166;6.992;2023-12-20T07:20:07;14.50;;;3.53;;
19482;SDS011;9882;51.166;6.992;2023-12-20T07:22:40;5.32;;;2.88;;
19482;SDS011;9882;51.166;6.992;2023-12-20T07:25:09;15.13;;;4.10;;
19482;SDS011;9882;51.166;6.992;2023-12-20T07:27:38;12.20;;;4.22;;
19482;SDS011;9882;51.166;6.992;2023-12-20T07:30:08;12.45;;;3.40;;
19482;SDS011;9882;51.166;6.992;2023-12-20T07:32:38;12.63;;;3.88;;
19482;SDS011;9882;51.166;6.992;2023-12-20T07:35:07;6.10;;;2.70;;
19482;SDS011;9882;51.166;6.992;2023-12-20T07:37:36;12.50;;;3.50;;
19482;SDS011;9882;51.166;6.992;2023-12-20T07:40:09;8.98;;;3.40;;
19482;SDS011;9882;51.166;6.992;2023-12-20T07:42:38;10.98;;;3.70;;
19482;SDS011;9882;51.166;6.992;2023-12-20T07:45:07;6.07;;;3.28;;
19482;SDS011;9882;51.166;6.992;2023-12-20T07:47:37;10.20;;;3.17;;
19482;SDS011;9882;51.166;6.992;2023-12-20T07:50:07;4.88;;;2.95;;
19482;SDS011;9882;51.166;6.992;2023-12-20T07:52:37;5.97;;;2.90;;
19482;SDS011;9882;51.166;6.992;2023-12-20T07:55:09;4.53;;;2.80;;
19482;SDS011;9882;51.166;6.992;2023-12-20T07:57:38;8.63;;;3.10;;
19482;SDS011;9882;51.166;6.992;2023-12-20T08:00:07;10.88;;;3.65;;
19482;SDS011;9882;51.166;6.992;2023-12-20T08:02:37;7.78;;;2.80;;
19482;SDS011;9882;51.166;6.992;2023-12-20T08:05:06;7.35;;;3.33;;
19482;SDS011;9882;51.166;6.992;2023-12-20T08:07:35;14.45;;;3.60;;
19482;SDS011;9882;51.166;6.992;2023-12-20T08:10:05;9.90;;;3.50;;
19482;SDS011;9882;51.166;6.992;2023-12-20T08:12:36;11.15;;;4.15;;
19482;SDS011;9882;51.166;6.992;2023-12-20T08:15:06;15.63;;;3.05;;
19482;SDS011;9882;51.166;6.992;2023-12-20T08:17:36;12.75;;;2.85;;
19482;SDS011;9882;51.166;6.992;2023-12-20T08:20:05;8.98;;;3.33;;
19482;SDS011;9882;51.166;6.992;2023-12-20T08:22:35;9.00;;;3.22;;
19482;SDS011;9882;51.166;6.992;2023-12-20T08:25:04;9.13;;;4.43;;
19482;SDS011;9882;51.166;6.992;2023-12-20T08:27:33;12.48;;;4.30;;
19482;SDS011;9882;51.166;6.992;2023-12-20T08:30:03;16.48;;;3.90;;
19482;SDS011;9882;51.166;6.992;2023-12-20T08:32:32;7.93;;;2.75;;
19482;SDS011;9882;51.166;6.992;2023-12-20T08:35:01;10.02;;;3.90;;
19482;SDS011;9882;51.166;6.992;2023-12-20T08:37:31;7.85;;;3.55;;
19482;SDS011;9882;51.166;6.992;2023-12-20T08:39:59;11.40;;;3.78;;
19482;SDS011;9882;51.166;6.992;2023-12-20T08:42:28;10.30;;;3.13;;
19482;SDS011;9882;51.166;6.992;2023-12-20T08:44:58;9.85;;;3.47;;
19482;SDS011;9882;51.166;6.992;2023-12-20T08:47:28;7.97;;;3.33;;
19482;SDS011;9882;51.166;6.992;2023-12-20T08:49:57;4.30;;;2.53;;
19482;SDS011;9882;51.166;6.992;2023-12-20T08:52:27;5.13;;;2.90;;
19482;SDS011;9882;51.166;6.992;2023-12-20T08:54:56;8.07;;;3.53;;
19482;SDS011;9882;51.166;6.992;2023-12-20T08:57:25;4.05;;;2.72;;
19482;SDS011;9882;51.166;6.992;2023-12-20T08:59:53;6.80;;;3.22;;
19482;SDS011;9882;51.166;6.992;2023-12-20T09:02:22;6.32;;;3.38;;
19482;SDS011;9882;51.166;6.992;2023-12-20T09:04:53;5.90;;;2.75;;
19482;SDS011;9882;51.166;6.992;2023-12-20T09:07:22;4.60;;;2.80;;
19482;SDS011;9882;51.166;6.992;2023-12-20T09:09:51;9.02;;;3.05;;
19482;SDS011;9882;51.166;6.992;2023-12-20T09:12:21;4.55;;;2.97;;
19482;SDS011;9882;51.166;6.992;2023-12-20T09:14:50;13.40;;;3.30;;
19482;SDS011;9882;51.166;6.992;2023-12-20T09:17:20;7.25;;;2.83;;
19482;SDS011;9882;51.166;6.992;2023-12-20T09:19:49;7.20;;;3.22;;
19482;SDS011;9882;51.166;6.992;2023-12-20T09:22:22;9.95;;;3.08;;
19482;SDS011;9882;51.166;6.992;2023-12-20T09:24:51;5.63;;;2.85;;
19482;SDS011;9882;51.166;6.992;2023-12-20T09:27:20;8.20;;;3.38;;
19482;SDS011;9882;51.166;6.992;2023-12-20T09:29:49;5.35;;;3.15;;
19482;SDS011;9882;51.166;6.992;2023-12-20T09:32:18;6.13;;;2.83;;
19482;SDS011;9882;51.166;6.992;2023-12-20T09:34:49;4.00;;;2.47;;
19482;SDS011;9882;51.166;6.992;2023-12-20T09:37:18;7.45;;;2.88;;
19482;SDS011;9882;51.166;6.992;2023-12-20T09:39:48;4.88;;;2.95;;
19482;SDS011;9882;51.166;6.992;2023-12-20T09:42:20;8.27;;;2.97;;
19482;SDS011;9882;51.166;6.992;2023-12-20T09:44:53;9.52;;;3.50;;
19482;SDS011;9882;51.166;6.992;2023-12-20T09:47:22;9.48;;;2.88;;
19482;SDS011;9882;51.166;6.992;2023-12-20T09:49:52;4.03;;;3.08;;
19482;SDS011;9882;51.166;6.992;2023-12-20T09:52:21;5.20;;;2.55;;
19482;SDS011;9882;51.166;6.992;2023-12-20T09:54:53;10.90;;;3.60;;
19482;SDS011;9882;51.166;6.992;2023-12-20T09:57:24;5.63;;;2.75;;
19482;SDS011;9882;51.166;6.992;2023-12-20T09:59:53;9.65;;;3.85;;
19482;SDS011;9882;51.166;6.992;2023-12-20T10:02:22;5.43;;;2.85;;
19482;SDS011;9882;51.166;6.992;2023-12-20T10:04:54;10.63;;;2.75;;
19482;SDS011;9882;51.166;6.992;2023-12-20T10:07:23;4.00;;;2.67;;
19482;SDS011;9882;51.166;6.992;2023-12-20T10:09:54;5.50;;;2.63;;
19482;SDS011;9882;51.166;6.992;2023-12-20T10:12:24;5.05;;;2.95;;
19482;SDS011;9882;51.166;6.992;2023-12-20T10:14:53;7.30;;;2.65;;
19482;SDS011;9882;51.166;6.992;2023-12-20T10:17:22;11.05;;;2.40;;
19482;SDS011;9882;51.166;6.992;2023-12-20T10:19:56;5.55;;;2.70;;
19482;SDS011;9882;51.166;6.992;2023-12-20T10:22:25;12.15;;;3.55;;
19482;SDS011;9882;51.166;6.992;2023-12-20T10:24:57;12.10;;;2.80;;
19482;SDS011;9882;51.166;6.992;2023-12-20T10:27:26;14.80;;;2.53;;
19482;SDS011;9882;51.166;6.992;2023-12-20T10:29:55;6.72;;;3.30;;
19482;SDS011;9882;51.166;6.992;2023-12-20T10:32:27;5.03;;;2.65;;
19482;SDS011;9882;51.166;6.992;2023-12-20T10:34:56;11.02;;;2.58;;
19482;SDS011;9882;51.166;6.992;2023-12-20T10:37:26;9.63;;;3.92;;
19482;SDS011;9882;51.166;6.992;2023-12-20T10:39:55;6.50;;;2.75;;
19482;SDS011;9882;51.166;6.992;2023-12-20T10:42:27;3.25;;;2.15;;
19482;SDS011;9882;51.166;6.992;2023-12-20T10:44:58;6.10;;;3.15;;
19482;SDS011;9882;51.166;6.992;2023-12-20T10:47:28;10.13;;;2.72;;
19482;SDS011;9882;51.166;6.992;2023-12-20T10:50:00;9.52;;;3.03;;
19482;SDS011;9882;51.166;6.992;2023-12-20T10:52:32;4.15;;;2.45;;
19482;SDS011;9882;51.166;6.992;2023-12-20T10:55:05;4.50;;;2.30;;
19482;SDS011;9882;51.166;6.992;2023-12-20T10:57:35;6.15;;;2.50;;
19482;SDS011;9882;51.166;6.992;2023-12-20T11:00:06;4.03;;;2.50;;
19482;SDS011;9882;51.166;6.992;2023-12-20T11:02:41;3.67;;;1.90;;
19482;SDS011;9882;51.166;6.992;2023-12-20T11:05:16;16.70;;;2.90;;
19482;SDS011;9882;51.166;6.992;2023-12-20T11:07:54;7.40;;;2.35;;
19482;SDS011;9882;51.166;6.992;2023-12-20T11:10:35;8.30;;;2.75;;
19482;SDS011;9882;51.166;6.992;2023-12-20T11:13:12;6.03;;;2.75;;
19482;SDS011;9882;51.166;6.992;2023-12-20T11:15:46;8.13;;;3.20;;
19482;SDS011;9882;51.166;6.992;2023-12-20T11:18:15;2.20;;;1.75;;
19482;SDS011;9882;51.166;6.992;2023-12-20T11:20:44;3.95;;;2.50;;
19482;SDS011;9882;51.166;6.992;2023-12-20T11:23:13;4.10;;;2.40;;
19482;SDS011;9882;51.166;6.992;2023-12-20T11:25:48;7.82;;;3.30;;
19482;SDS011;9882;51.166;6.992;2023-12-20T11:28:21;2.65;;;2.25;;
19482;SDS011;9882;51.166;6.992;2023-12-20T11:30:52;16.20;;;3.08;;
19482;SDS011;9882;51.166;6.992;2023-12-20T11:33:22;7.10;;;2.78;;
19482;SDS011;9882;51.166;6.992;2023-12-20T11:35:55;8.48;;;2.97;;
19482;SDS011;9882;51.166;6.992;2023-12-20T11:38:25;8.48;;;3.00;;
19482;SDS011;9882;51.166;6.992;2023-12-20T11:40:55;4.55;;;2.67;;
19482;SDS011;9882;51.166;6.992;2023-12-20T11:43:30;3.67;;;2.40;;
19482;SDS011;9882;51.166;6.992;2023-12-20T11:46:03;2.75;;;2.30;;
19482;SDS011;9882;51.166;6.992;2023-12-20T11:48:34;5.07;;;2.47;;
19482;SDS011;9882;51.166;6.992;2023-12-20T11:51:08;5.80;;;2.97;;
19482;SDS011;9882;51.166;6.992;2023-12-20T11:53:38;7.38;;;2.92;;
19482;SDS011;9882;51.166;6.992;2023-12-20T11:56:09;6.28;;;3.30;;
19482;SDS011;9882;51.166;6.992;2023-12-20T11:58:39;6.13;;;3.20;;
19482;SDS011;9882;51.166;6.992;2023-12-20T12:01:08;3.80;;;2.47;;
19482;SDS011;9882;51.166;6.992;2023-12-20T12:03:37;6.32;;;2.88;;
19482;SDS011;9882;51.166;6.992;2023-12-20T12:06:06;11.93;;;3.30;;
19482;SDS011;9882;51.166;6.992;2023-12-20T12:08:35;7.55;;;2.47;;
19482;SDS011;9882;51.166;6.992;2023-12-20T12:11:04;5.07;;;2.45;;
19482;SDS011;9882;51.166;6.992;2023-12-20T12:13:35;10.88;;;2.65;;
19482;SDS011;9882;51.166;6.992;2023-12-20T12:16:04;3.65;;;2.28;;
19482;SDS011;9882;51.166;6.992;2023-12-20T12:18:34;15.32;;;3.33;;
19482;SDS011;9882;51.166;6.992;2023-12-20T12:21:03;9.35;;;2.80;;
19482;SDS011;9882;51.166;6.992;2023-12-20T12:23:34;4.85;;;2.88;;
19482;SDS011;9882;51.166;6.992;2023-12-20T12:26:03;5.72;;;2.75;;
19482;SDS011;9882;51.166;6.992;2023-12-20T12:28:35;8.88;;;2.85;;
19482;SDS011;9882;51.166;6.992;2023-12-20T12:31:05;3.42;;;2.65;;
19482;SDS011;9882;51.166;6.992;2023-12-20T12:33:34;7.32;;;2.95;;
19482;SDS011;9882;51.166;6.992;2023-12-20T12:36:03;3.83;;;2.45;;
19482;SDS011;9882;51.166;6.992;2023-12-20T12:38:34;5.72;;;2.78;;
19482;SDS011;9882;51.166;6.992;2023-12-20T12:41:03;4.63;;;2.45;;
19482;SDS011;9882;51.166;6.992;2023-12-20T12:43:35;7.75;;;3.00;;
19482;SDS011;9882;51.166;6.992;2023-12-20T12:46:05;9.73;;;3.95;;
19482;SDS011;9882;51.166;6.992;2023-12-20T12:48:34;8.32;;;3.58;;
19482;SDS011;9882;51.166;6.992;2023-12-20T12:51:03;6.43;;;3.17;;
19482;SDS011;9882;51.166;6.992;2023-12-20T12:53:34;4.85;;;2.80;;
19482;SDS011;9882;51.166;6.992;2023-12-20T12:56:03;7.45;;;2.97;;
19482;SDS011;9882;51.166;6.992;2023-12-20T12:58:33;17.27;;;3.67;;
19482;SDS011;9882;51.166;6.992;2023-12-20T13:01:03;5.22;;;3.00;;
19482;SDS011;9882;51.166;6.992;2023-12-20T13:03:32;5.03;;;3.10;;
19482;SDS011;9882;51.166;6.992;2023-12-20T13:06:02;6.95;;;3.20;;
19482;SDS011;9882;51.166;6.992;2023-12-20T13:08:32;5.55;;;3.08;;
19482;SDS011;9882;51.166;6.992;2023-12-20T13:11:02;10.48;;;3.10;;
19482;SDS011;9882;51.166;6.992;2023-12-20T13:13:31;8.85;;;3.65;;
19482;SDS011;9882;51.166;6.992;2023-12-20T13:16:00;4.22;;;2.67;;
19482;SDS011;9882;51.166;6.992;2023-12-20T13:18:31;8.85;;;3.80;;
19482;SDS011;9882;51.166;6.992;2023-12-20T13:21:00;5.00;;;3.20;;
19482;SDS011;9882;51.166;6.992;2023-12-20T13:23:28;10.23;;;4.00;;
19482;SDS011;9882;51.166;6.992;2023-12-20T13:25:58;4.15;;;3.15;;
19482;SDS011;9882;51.166;6.992;2023-12-20T13:28:27;7.40;;;3.50;;
19482;SDS011;9882;51.166;6.992;2023-12-20T13:30:56;9.95;;;3.28;;
19482;SDS011;9882;51.166;6.992;2023-12-20T13:33:25;8.07;;;3.70;;
19482;SDS011;9882;51.166;6.992;2023-12-20T13:35:55;14.93;;;3.42;;
19482;SDS011;9882;51.166;6.992;2023-12-20T13:38:29;9.13;;;3.88;;
19482;SDS011;9882;51.166;6.992;2023-12-20T13:40:58;12.02;;;3.25;;
19482;SDS011;9882;51.166;6.992;2023-12-20T13:43:27;7.00;;;2.90;;
19482;SDS011;9882;51.166;6.992;2023-12-20T13:45:56;6.68;;;3.38;;
19482;SDS011;9882;51.166;6.992;2023-12-20T13:48:24;4.40;;;3.30;;
19482;SDS011;9882;51.166;6.992;2023-12-20T13:50:55;7.50;;;3.95;;
19482;SDS011;9882;51.166;6.992;2023-12-20T13:53:25;5.70;;;3.25;;
19482;SDS011;9882;51.166;6.992;2023-12-20T13:55:55;5.45;;;3.20;;
19482;SDS011;9882;51.166;6.992;2023-12-20T13:58:25;8.07;;;2.95;;
19482;SDS011;9882;51.166;6.992;2023-12-20T14:00:53;12.68;;;4.07;;
19482;SDS011;9882;51.166;6.992;2023-12-20T14:03:22;4.18;;;2.83;;
19482;SDS011;9882;51.166;6.992;2023-12-20T14:05:51;5.07;;;3.13;;
19482;SDS011;9882;51.166;6.992;2023-12-20T14:08:21;17.52;;;4.18;;
19482;SDS011;9882;51.166;6.992;2023-12-20T14:10:51;9.63;;;4.32;;
19482;SDS011;9882;51.166;6.992;2023-12-20T14:13:20;11.40;;;3.33;;
19482;SDS011;9882;51.166;6.992;2023-12-20T14:15:49;5.53;;;3.08;;
19482;SDS011;9882;51.166;6.992;2023-12-20T14:18:18;3.50;;;2.50;;
19482;SDS011;9882;51.166;6.992;2023-12-20T14:20:47;8.52;;;3.10;;
19482;SDS011;9882;51.166;6.992;2023-12-20T14:23:17;9.82;;;3.15;;
19482;SDS011;9882;51.166;6.992;2023-12-20T14:25:48;5.65;;;2.47;;
19482;SDS011;9882;51.166;6.992;2023-12-20T14:28:17;8.70;;;3.72;;
19482;SDS011;9882;51.166;6.992;2023-12-20T14:30:47;7.00;;;3.40;;
19482;SDS011;9882;51.166;6.992;2023-12-20T14:33:17;5.93;;;3.13;;
19482;SDS011;9882;51.166;6.992;2023-12-20T14:35:47;11.30;;;3.63;;
19482;SDS011;9882;51.166;6.992;2023-12-20T14:38:16;5.50;;;2.70;;
19482;SDS011;9882;51.166;6.992;2023-12-20T14:40:49;3.63;;;2.60;;
19482;SDS011;9882;51.166;6.992;2023-12-20T14:43:19;7.82;;;2.92;;
19482;SDS011;9882;51.166;6.992;2023-12-20T14:45:49;5.43;;;2.78;;
19482;SDS011;9882;51.166;6.992;2023-12-20T14:48:19;4.68;;;2.70;;
19482;SDS011;9882;51.166;6.992;2023-12-20T14:50:48;9.85;;;3.80;;
19482;SDS011;9882;51.166;6.992;2023-12-20T14:53:18;9.73;;;2.75;;
19482;SDS011;9882;51.166;6.992;2023-12-20T14:55:51;6.78;;;2.72;;
19482;SDS011;9882;51.166;6.992;2023-12-20T14:58:19;6.60;;;2.90;;
19482;SDS011;9882;51.166;6.992;2023-12-20T15:00:48;5.13;;;2.83;;
19482;SDS011;9882;51.166;6.992;2023-12-20T15:03:17;5.68;;;3.08;;
19482;SDS011;9882;51.166;6.992;2023-12-20T15:05:46;7.30;;;3.30;;
19482;SDS011;9882;51.166;6.992;2023-12-20T15:08:15;6.80;;;2.75;;
19482;SDS011;9882;51.166;6.992;2023-12-20T15:10:44;5.10;;;2.67;;
19482;SDS011;9882;51.166;6.992;2023-12-20T15:13:14;7.50;;;3.80;;